sensor_id;sensor_type;location;lat;lon;timestamp;P1;durP1;ratioP1;P2;durP2;ratioP2
64842;SDS011;51310;52.198;5.422;2023-07-22T00:01:02;13.13;;;6.25;;
64842;SDS011;51310;52.198;5.422;2023-07-22T00:03:28;12.32;;;6.38;;
64842;SDS011;51310;52.198;5.422;2023-07-22T00:06:04;11.27;;;6.45;;
64842;SDS011;51310;52.198;5.422;2023-07-22T00:08:33;16.83;;;7.40;;
64842;SDS011;51310;52.198;5.422;2023-07-22T00:11:06;17.08;;;6.85;;
64842;SDS011;51310;52.198;5.422;2023-07-22T00:13:33;17.00;;;7.75;;
64842;SDS011;51310;52.198;5.422;2023-07-22T00:16:00;18.10;;;8.70;;
64842;SDS011;51310;52.198;5.422;2023-07-22T00:18:30;17.02;;;8.60;;
64842;SDS011;51310;52.198;5.422;2023-07-22T00:20:57;20.10;;;8.43;;
64842;SDS011;51310;52.198;5.422;2023-07-22T00:23:23;15.88;;;8.20;;
64842;SDS011;51310;52.198;5.422;2023-07-22T00:25:49;20.35;;;9.40;;
64842;SDS011;51310;52.198;5.422;2023-07-22T00:28:16;18.40;;;8.48;;
64842;SDS011;51310;52.198;5.422;2023-07-22T00:30:43;18.98;;;9.75;;
64842;SDS011;51310;52.198;5.422;2023-07-22T00:33:09;17.20;;;8.75;;
64842;SDS011;51310;52.198;5.422;2023-07-22T00:35:35;16.55;;;8.80;;
64842;SDS011;51310;52.198;5.422;2023-07-22T00:38:01;23.13;;;9.68;;
64842;SDS011;51310;52.198;5.422;2023-07-22T00:40:29;18.52;;;8.95;;
64842;SDS011;51310;52.198;5.422;2023-07-22T00:42:57;26.80;;;9.50;;
64842;SDS011;51310;52.198;5.422;2023-07-22T00:45:24;23.70;;;10.23;;
64842;SDS011;51310;52.198;5.422;2023-07-22T00:47:50;19.75;;;9.60;;
64842;SDS011;51310;52.198;5.422;2023-07-22T00:50:16;20.42;;;9.45;;
64842;SDS011;51310;52.198;5.422;2023-07-22T00:52:42;22.52;;;10.30;;
64842;SDS011;51310;52.198;5.422;2023-07-22T00:55:08;20.33;;;10.23;;
64842;SDS011;51310;52.198;5.422;2023-07-22T00:57:34;22.17;;;10.27;;
64842;SDS011;51310;52.198;5.422;2023-07-22T01:00:02;23.48;;;10.68;;
64842;SDS011;51310;52.198;5.422;2023-07-22T01:02:30;24.00;;;9.63;;
64842;SDS011;51310;52.198;5.422;2023-07-22T01:04:56;24.67;;;10.15;;
64842;SDS011;51310;52.198;5.422;2023-07-22T01:07:22;22.40;;;11.40;;
64842;SDS011;51310;52.198;5.422;2023-07-22T01:09:49;24.75;;;11.00;;
64842;SDS011;51310;52.198;5.422;2023-07-22T01:12:23;26.52;;;10.57;;
64842;SDS011;51310;52.198;5.422;2023-07-22T01:14:49;24.10;;;11.07;;
64842;SDS011;51310;52.198;5.422;2023-07-22T01:17:16;19.40;;;10.35;;
64842;SDS011;51310;52.198;5.422;2023-07-22T01:19:42;24.20;;;10.88;;
64842;SDS011;51310;52.198;5.422;2023-07-22T01:22:08;27.35;;;12.95;;
64842;SDS011;51310;52.198;5.422;2023-07-22T01:24:38;22.75;;;11.32;;
64842;SDS011;51310;52.198;5.422;2023-07-22T01:27:05;19.45;;;9.18;;
64842;SDS011;51310;52.198;5.422;2023-07-22T01:29:35;19.90;;;10.73;;
64842;SDS011;51310;52.198;5.422;2023-07-22T01:32:01;21.73;;;10.63;;
64842;SDS011;51310;52.198;5.422;2023-07-22T01:34:27;25.73;;;11.00;;
64842;SDS011;51310;52.198;5.422;2023-07-22T01:36:54;19.35;;;8.95;;
64842;SDS011;51310;52.198;5.422;2023-07-22T01:39:20;23.98;;;11.00;;
64842;SDS011;51310;52.198;5.422;2023-07-22T01:41:47;24.63;;;10.70;;
64842;SDS011;51310;52.198;5.422;2023-07-22T01:44:13;29.90;;;11.05;;
64842;SDS011;51310;52.198;5.422;2023-07-22T01:46:39;27.23;;;10.63;;
64842;SDS011;51310;52.198;5.422;2023-07-22T01:49:07;22.60;;;10.18;;
64842;SDS011;51310;52.198;5.422;2023-07-22T01:51:37;21.77;;;10.32;;
64842;SDS011;51310;52.198;5.422;2023-07-22T01:54:07;17.20;;;9.32;;
64842;SDS011;51310;52.198;5.422;2023-07-22T01:56:34;25.38;;;10.00;;
64842;SDS011;51310;52.198;5.422;2023-07-22T01:59:01;22.13;;;10.35;;
64842;SDS011;51310;52.198;5.422;2023-07-22T02:01:27;18.13;;;8.85;;
64842;SDS011;51310;52.198;5.422;2023-07-22T02:03:54;20.60;;;10.77;;
64842;SDS011;51310;52.198;5.422;2023-07-22T02:06:20;32.85;;;9.63;;
64842;SDS011;51310;52.198;5.422;2023-07-22T02:08:46;18.60;;;9.50;;
64842;SDS011;51310;52.198;5.422;2023-07-22T02:11:12;21.92;;;8.82;;
64842;SDS011;51310;52.198;5.422;2023-07-22T02:13:38;22.52;;;9.68;;
64842;SDS011;51310;52.198;5.422;2023-07-22T02:16:04;19.08;;;9.50;;
64842;SDS011;51310;52.198;5.422;2023-07-22T02:18:30;22.88;;;11.00;;
64842;SDS011;51310;52.198;5.422;2023-07-22T02:20:56;15.52;;;8.63;;
64842;SDS011;51310;52.198;5.422;2023-07-22T02:23:23;22.83;;;10.65;;
64842;SDS011;51310;52.198;5.422;2023-07-22T02:25:50;18.25;;;8.95;;
64842;SDS011;51310;52.198;5.422;2023-07-22T02:28:18;23.55;;;9.80;;
64842;SDS011;51310;52.198;5.422;2023-07-22T02:30:50;24.60;;;9.55;;
64842;SDS011;51310;52.198;5.422;2023-07-22T02:33:18;17.48;;;9.27;;
64842;SDS011;51310;52.198;5.422;2023-07-22T02:35:47;23.67;;;10.80;;
64842;SDS011;51310;52.198;5.422;2023-07-22T02:38:13;25.05;;;9.88;;
64842;SDS011;51310;52.198;5.422;2023-07-22T02:40:39;27.25;;;12.02;;
64842;SDS011;51310;52.198;5.422;2023-07-22T02:43:06;20.67;;;10.05;;
64842;SDS011;51310;52.198;5.422;2023-07-22T02:45:36;22.20;;;10.43;;
64842;SDS011;51310;52.198;5.422;2023-07-22T02:48:02;26.08;;;11.52;;
64842;SDS011;51310;52.198;5.422;2023-07-22T02:50:28;31.98;;;11.73;;
64842;SDS011;51310;52.198;5.422;2023-07-22T02:52:56;33.65;;;13.38;;
64842;SDS011;51310;52.198;5.422;2023-07-22T02:55:22;24.10;;;11.50;;
64842;SDS011;51310;52.198;5.422;2023-07-22T02:57:48;28.65;;;13.23;;
64842;SDS011;51310;52.198;5.422;2023-07-22T03:00:15;36.65;;;13.63;;
64842;SDS011;51310;52.198;5.422;2023-07-22T03:02:48;21.98;;;10.73;;
64842;SDS011;51310;52.198;5.422;2023-07-22T03:05:25;29.88;;;13.00;;
64842;SDS011;51310;52.198;5.422;2023-07-22T03:07:55;24.73;;;12.07;;
64842;SDS011;51310;52.198;5.422;2023-07-22T03:10:23;28.58;;;12.40;;
64842;SDS011;51310;52.198;5.422;2023-07-22T03:12:54;23.90;;;11.23;;
64842;SDS011;51310;52.198;5.422;2023-07-22T03:15:21;29.95;;;12.23;;
64842;SDS011;51310;52.198;5.422;2023-07-22T03:17:51;36.35;;;13.07;;
64842;SDS011;51310;52.198;5.422;2023-07-22T03:20:18;27.48;;;11.95;;
64842;SDS011;51310;52.198;5.422;2023-07-22T03:22:45;25.00;;;11.90;;
64842;SDS011;51310;52.198;5.422;2023-07-22T03:25:11;23.67;;;11.60;;
64842;SDS011;51310;52.198;5.422;2023-07-22T03:27:42;33.00;;;12.88;;
64842;SDS011;51310;52.198;5.422;2023-07-22T03:30:11;29.00;;;12.70;;
64842;SDS011;51310;52.198;5.422;2023-07-22T03:32:41;27.55;;;13.32;;
64842;SDS011;51310;52.198;5.422;2023-07-22T03:35:18;28.60;;;12.50;;
64842;SDS011;51310;52.198;5.422;2023-07-22T03:37:44;27.95;;;12.85;;
64842;SDS011;51310;52.198;5.422;2023-07-22T03:40:10;26.15;;;11.93;;
64842;SDS011;51310;52.198;5.422;2023-07-22T03:42:44;26.95;;;12.23;;
64842;SDS011;51310;52.198;5.422;2023-07-22T03:45:16;27.85;;;12.57;;
64842;SDS011;51310;52.198;5.422;2023-07-22T03:47:43;28.88;;;13.02;;
64842;SDS011;51310;52.198;5.422;2023-07-22T03:50:12;28.55;;;12.50;;
64842;SDS011;51310;52.198;5.422;2023-07-22T03:52:38;28.90;;;12.75;;
64842;SDS011;51310;52.198;5.422;2023-07-22T03:55:04;28.30;;;12.27;;
64842;SDS011;51310;52.198;5.422;2023-07-22T03:57:31;30.90;;;13.35;;
64842;SDS011;51310;52.198;5.422;2023-07-22T03:59:57;25.60;;;11.82;;
64842;SDS011;51310;52.198;5.422;2023-07-22T04:02:23;25.70;;;12.18;;
64842;SDS011;51310;52.198;5.422;2023-07-22T04:04:50;33.47;;;12.52;;
64842;SDS011;51310;52.198;5.422;2023-07-22T04:07:18;20.02;;;9.63;;
64842;SDS011;51310;52.198;5.422;2023-07-22T04:09:44;26.88;;;11.57;;
64842;SDS011;51310;52.198;5.422;2023-07-22T04:12:10;23.98;;;11.95;;
64842;SDS011;51310;52.198;5.422;2023-07-22T04:14:37;24.15;;;10.57;;
64842;SDS011;51310;52.198;5.422;2023-07-22T04:17:04;22.98;;;11.63;;
64842;SDS011;51310;52.198;5.422;2023-07-22T04:19:30;23.40;;;11.45;;
64842;SDS011;51310;52.198;5.422;2023-07-22T04:21:56;20.65;;;10.82;;
64842;SDS011;51310;52.198;5.422;2023-07-22T04:24:22;22.63;;;9.95;;
64842;SDS011;51310;52.198;5.422;2023-07-22T04:26:50;18.08;;;9.55;;
64842;SDS011;51310;52.198;5.422;2023-07-22T04:29:16;23.52;;;10.15;;
64842;SDS011;51310;52.198;5.422;2023-07-22T04:31:42;26.75;;;9.95;;
64842;SDS011;51310;52.198;5.422;2023-07-22T04:34:08;26.67;;;10.98;;
64842;SDS011;51310;52.198;5.422;2023-07-22T04:36:36;21.27;;;9.85;;
64842;SDS011;51310;52.198;5.422;2023-07-22T04:39:02;21.88;;;9.90;;
64842;SDS011;51310;52.198;5.422;2023-07-22T04:41:32;23.85;;;9.13;;
64842;SDS011;51310;52.198;5.422;2023-07-22T04:43:58;18.17;;;9.05;;
64842;SDS011;51310;52.198;5.422;2023-07-22T04:46:25;22.23;;;9.75;;
64842;SDS011;51310;52.198;5.422;2023-07-22T04:48:54;21.52;;;10.30;;
64842;SDS011;51310;52.198;5.422;2023-07-22T04:51:23;18.85;;;9.65;;
64842;SDS011;51310;52.198;5.422;2023-07-22T04:53:49;28.10;;;10.02;;
64842;SDS011;51310;52.198;5.422;2023-07-22T04:56:15;18.52;;;10.50;;
64842;SDS011;51310;52.198;5.422;2023-07-22T04:58:41;18.55;;;9.70;;
64842;SDS011;51310;52.198;5.422;2023-07-22T05:01:07;24.33;;;11.55;;
64842;SDS011;51310;52.198;5.422;2023-07-22T05:03:34;21.75;;;10.25;;
64842;SDS011;51310;52.198;5.422;2023-07-22T05:06:00;25.10;;;10.35;;
64842;SDS011;51310;52.198;5.422;2023-07-22T05:08:26;26.30;;;10.80;;
64842;SDS011;51310;52.198;5.422;2023-07-22T05:10:52;23.52;;;10.15;;
64842;SDS011;51310;52.198;5.422;2023-07-22T05:13:18;27.67;;;11.90;;
64842;SDS011;51310;52.198;5.422;2023-07-22T05:15:44;24.90;;;11.15;;
64842;SDS011;51310;52.198;5.422;2023-07-22T05:18:10;25.50;;;11.68;;
64842;SDS011;51310;52.198;5.422;2023-07-22T05:20:37;27.85;;;12.02;;
64842;SDS011;51310;52.198;5.422;2023-07-22T05:23:04;22.17;;;11.55;;
64842;SDS011;51310;52.198;5.422;2023-07-22T05:25:30;25.60;;;10.68;;
64842;SDS011;51310;52.198;5.422;2023-07-22T05:27:56;27.13;;;12.48;;
64842;SDS011;51310;52.198;5.422;2023-07-22T05:30:22;23.48;;;10.73;;
64842;SDS011;51310;52.198;5.422;2023-07-22T05:32:48;35.30;;;11.88;;
64842;SDS011;51310;52.198;5.422;2023-07-22T05:35:18;22.88;;;11.02;;
64842;SDS011;51310;52.198;5.422;2023-07-22T05:37:44;27.35;;;11.80;;
64842;SDS011;51310;52.198;5.422;2023-07-22T05:40:10;25.17;;;12.60;;
64842;SDS011;51310;52.198;5.422;2023-07-22T05:42:36;34.72;;;12.43;;
64842;SDS011;51310;52.198;5.422;2023-07-22T05:45:02;25.73;;;12.57;;
64842;SDS011;51310;52.198;5.422;2023-07-22T05:47:29;31.60;;;13.70;;
64842;SDS011;51310;52.198;5.422;2023-07-22T05:49:55;29.15;;;12.35;;
64842;SDS011;51310;52.198;5.422;2023-07-22T05:52:21;30.25;;;13.35;;
64842;SDS011;51310;52.198;5.422;2023-07-22T05:54:47;27.70;;;12.65;;
64842;SDS011;51310;52.198;5.422;2023-07-22T05:57:13;33.90;;;14.32;;
64842;SDS011;51310;52.198;5.422;2023-07-22T05:59:39;28.63;;;13.95;;
64842;SDS011;51310;52.198;5.422;2023-07-22T06:02:05;30.13;;;13.25;;
64842;SDS011;51310;52.198;5.422;2023-07-22T06:04:33;39.70;;;15.02;;
64842;SDS011;51310;52.198;5.422;2023-07-22T06:06:59;29.27;;;13.75;;
64842;SDS011;51310;52.198;5.422;2023-07-22T06:09:25;29.42;;;13.23;;
64842;SDS011;51310;52.198;5.422;2023-07-22T06:11:51;36.03;;;13.80;;
64842;SDS011;51310;52.198;5.422;2023-07-22T06:14:17;36.10;;;13.85;;
64842;SDS011;51310;52.198;5.422;2023-07-22T06:16:43;27.55;;;13.85;;
64842;SDS011;51310;52.198;5.422;2023-07-22T06:19:09;31.40;;;14.13;;
64842;SDS011;51310;52.198;5.422;2023-07-22T06:21:35;26.90;;;12.95;;
64842;SDS011;51310;52.198;5.422;2023-07-22T06:24:01;26.95;;;12.75;;
64842;SDS011;51310;52.198;5.422;2023-07-22T06:26:27;28.35;;;13.18;;
64842;SDS011;51310;52.198;5.422;2023-07-22T06:28:52;24.33;;;13.32;;
64842;SDS011;51310;52.198;5.422;2023-07-22T06:31:18;36.35;;;13.52;;
64842;SDS011;51310;52.198;5.422;2023-07-22T06:33:44;30.45;;;13.05;;
64842;SDS011;51310;52.198;5.422;2023-07-22T06:36:11;26.67;;;12.82;;
64842;SDS011;51310;52.198;5.422;2023-07-22T06:38:37;29.50;;;13.25;;
64842;SDS011;51310;52.198;5.422;2023-07-22T06:41:02;29.60;;;14.32;;
64842;SDS011;51310;52.198;5.422;2023-07-22T06:43:28;39.03;;;13.73;;
64842;SDS011;51310;52.198;5.422;2023-07-22T06:45:54;27.13;;;13.10;;
64842;SDS011;51310;52.198;5.422;2023-07-22T06:48:20;25.90;;;11.55;;
64842;SDS011;51310;52.198;5.422;2023-07-22T06:50:49;33.15;;;12.52;;
64842;SDS011;51310;52.198;5.422;2023-07-22T06:53:15;24.73;;;13.38;;
64842;SDS011;51310;52.198;5.422;2023-07-22T06:55:48;29.13;;;13.25;;
64842;SDS011;51310;52.198;5.422;2023-07-22T06:58:19;25.02;;;12.15;;
64842;SDS011;51310;52.198;5.422;2023-07-22T07:00:45;21.65;;;11.50;;
64842;SDS011;51310;52.198;5.422;2023-07-22T07:03:11;28.50;;;12.77;;
64842;SDS011;51310;52.198;5.422;2023-07-22T07:05:37;25.38;;;12.10;;
64842;SDS011;51310;52.198;5.422;2023-07-22T07:08:06;33.60;;;13.30;;
64842;SDS011;51310;52.198;5.422;2023-07-22T07:10:38;25.95;;;12.85;;
64842;SDS011;51310;52.198;5.422;2023-07-22T07:13:05;30.95;;;13.18;;
64842;SDS011;51310;52.198;5.422;2023-07-22T07:15:31;25.05;;;11.13;;
64842;SDS011;51310;52.198;5.422;2023-07-22T07:17:57;21.45;;;10.40;;
64842;SDS011;51310;52.198;5.422;2023-07-22T07:20:22;26.67;;;11.20;;
64842;SDS011;51310;52.198;5.422;2023-07-22T07:22:48;32.70;;;12.48;;
64842;SDS011;51310;52.198;5.422;2023-07-22T07:25:14;30.13;;;11.75;;
64842;SDS011;51310;52.198;5.422;2023-07-22T07:27:40;21.55;;;11.05;;
64842;SDS011;51310;52.198;5.422;2023-07-22T07:30:06;21.80;;;11.15;;
64842;SDS011;51310;52.198;5.422;2023-07-22T07:32:33;25.63;;;9.75;;
64842;SDS011;51310;52.198;5.422;2023-07-22T07:34:59;23.15;;;10.60;;
64842;SDS011;51310;52.198;5.422;2023-07-22T07:37:25;20.63;;;10.48;;
64842;SDS011;51310;52.198;5.422;2023-07-22T07:39:51;24.63;;;10.55;;
64842;SDS011;51310;52.198;5.422;2023-07-22T07:42:17;23.10;;;10.73;;
64842;SDS011;51310;52.198;5.422;2023-07-22T07:44:44;24.65;;;10.80;;
64842;SDS011;51310;52.198;5.422;2023-07-22T07:47:11;22.40;;;11.15;;
64842;SDS011;51310;52.198;5.422;2023-07-22T07:49:36;24.67;;;10.48;;
64842;SDS011;51310;52.198;5.422;2023-07-22T07:52:02;26.83;;;11.32;;
64842;SDS011;51310;52.198;5.422;2023-07-22T07:54:29;25.42;;;11.13;;
64842;SDS011;51310;52.198;5.422;2023-07-22T07:56:55;23.40;;;10.65;;
64842;SDS011;51310;52.198;5.422;2023-07-22T07:59:21;23.05;;;11.57;;
64842;SDS011;51310;52.198;5.422;2023-07-22T08:01:47;27.42;;;11.13;;
64842;SDS011;51310;52.198;5.422;2023-07-22T08:04:12;30.30;;;11.32;;
64842;SDS011;51310;52.198;5.422;2023-07-22T08:06:38;20.10;;;10.75;;
64842;SDS011;51310;52.198;5.422;2023-07-22T08:09:04;18.73;;;9.82;;
64842;SDS011;51310;52.198;5.422;2023-07-22T08:11:30;26.30;;;10.80;;
64842;SDS011;51310;52.198;5.422;2023-07-22T08:13:56;17.45;;;9.95;;
64842;SDS011;51310;52.198;5.422;2023-07-22T08:16:22;25.98;;;9.95;;
64842;SDS011;51310;52.198;5.422;2023-07-22T08:18:49;17.73;;;8.30;;
64842;SDS011;51310;52.198;5.422;2023-07-22T08:21:15;26.10;;;8.98;;
64842;SDS011;51310;52.198;5.422;2023-07-22T08:23:41;26.67;;;9.57;;
64842;SDS011;51310;52.198;5.422;2023-07-22T08:26:10;17.05;;;9.55;;
64842;SDS011;51310;52.198;5.422;2023-07-22T08:28:36;17.77;;;8.55;;
64842;SDS011;51310;52.198;5.422;2023-07-22T08:31:02;23.08;;;8.77;;
64842;SDS011;51310;52.198;5.422;2023-07-22T08:33:29;24.05;;;8.85;;
64842;SDS011;51310;52.198;5.422;2023-07-22T08:35:56;15.63;;;7.85;;
64842;SDS011;51310;52.198;5.422;2023-07-22T08:38:22;19.50;;;9.48;;
64842;SDS011;51310;52.198;5.422;2023-07-22T08:40:48;21.67;;;9.07;;
64842;SDS011;51310;52.198;5.422;2023-07-22T08:43:21;14.00;;;7.70;;
64842;SDS011;51310;52.198;5.422;2023-07-22T08:45:49;16.98;;;7.05;;
64842;SDS011;51310;52.198;5.422;2023-07-22T08:48:19;13.07;;;7.30;;
64842;SDS011;51310;52.198;5.422;2023-07-22T08:50:53;15.65;;;7.80;;
64842;SDS011;51310;52.198;5.422;2023-07-22T08:53:37;14.10;;;7.60;;
64842;SDS011;51310;52.198;5.422;2023-07-22T08:56:04;16.80;;;7.45;;
64842;SDS011;51310;52.198;5.422;2023-07-22T08:58:30;18.13;;;7.82;;
64842;SDS011;51310;52.198;5.422;2023-07-22T09:00:57;16.42;;;8.27;;
64842;SDS011;51310;52.198;5.422;2023-07-22T09:03:24;20.40;;;7.38;;
64842;SDS011;51310;52.198;5.422;2023-07-22T09:05:50;12.70;;;6.30;;
64842;SDS011;51310;52.198;5.422;2023-07-22T09:08:18;16.40;;;6.22;;
64842;SDS011;51310;52.198;5.422;2023-07-22T09:10:44;10.77;;;6.75;;
64842;SDS011;51310;52.198;5.422;2023-07-22T09:13:11;11.40;;;5.85;;
64842;SDS011;51310;52.198;5.422;2023-07-22T09:15:39;13.73;;;5.57;;
64842;SDS011;51310;52.198;5.422;2023-07-22T09:18:06;11.80;;;5.57;;
64842;SDS011;51310;52.198;5.422;2023-07-22T09:20:32;13.82;;;6.18;;
64842;SDS011;51310;52.198;5.422;2023-07-22T09:22:59;13.98;;;5.35;;
64842;SDS011;51310;52.198;5.422;2023-07-22T09:25:27;13.27;;;5.53;;
64842;SDS011;51310;52.198;5.422;2023-07-22T09:27:54;9.27;;;5.43;;
64842;SDS011;51310;52.198;5.422;2023-07-22T09:30:32;10.88;;;4.78;;
64842;SDS011;51310;52.198;5.422;2023-07-22T09:33:04;21.38;;;6.75;;
64842;SDS011;51310;52.198;5.422;2023-07-22T09:35:46;20.05;;;7.00;;
64842;SDS011;51310;52.198;5.422;2023-07-22T09:38:14;8.48;;;5.25;;
64842;SDS011;51310;52.198;5.422;2023-07-22T09:40:50;11.85;;;4.82;;
64842;SDS011;51310;52.198;5.422;2023-07-22T09:43:17;11.82;;;5.07;;
64842;SDS011;51310;52.198;5.422;2023-07-22T09:45:46;6.30;;;4.18;;
64842;SDS011;51310;52.198;5.422;2023-07-22T09:48:13;8.07;;;4.38;;
64842;SDS011;51310;52.198;5.422;2023-07-22T09:50:39;8.50;;;4.25;;
64842;SDS011;51310;52.198;5.422;2023-07-22T09:53:05;8.40;;;4.00;;
64842;SDS011;51310;52.198;5.422;2023-07-22T09:55:32;9.68;;;4.47;;
64842;SDS011;51310;52.198;5.422;2023-07-22T09:58:00;9.52;;;4.22;;
64842;SDS011;51310;52.198;5.422;2023-07-22T10:00:36;13.60;;;4.65;;
64842;SDS011;51310;52.198;5.422;2023-07-22T10:03:03;8.60;;;4.88;;
64842;SDS011;51310;52.198;5.422;2023-07-22T10:05:35;7.93;;;4.25;;
64842;SDS011;51310;52.198;5.422;2023-07-22T10:08:05;6.30;;;4.93;;
64842;SDS011;51310;52.198;5.422;2023-07-22T10:10:32;6.80;;;4.68;;
64842;SDS011;51310;52.198;5.422;2023-07-22T10:13:03;10.18;;;3.83;;
64842;SDS011;51310;52.198;5.422;2023-07-22T10:15:30;10.02;;;4.97;;
64842;SDS011;51310;52.198;5.422;2023-07-22T10:18:00;10.95;;;4.78;;
64842;SDS011;51310;52.198;5.422;2023-07-22T10:20:28;20.55;;;5.10;;
64842;SDS011;51310;52.198;5.422;2023-07-22T10:22:59;5.70;;;3.90;;
64842;SDS011;51310;52.198;5.422;2023-07-22T10:25:26;12.45;;;4.07;;
64842;SDS011;51310;52.198;5.422;2023-07-22T10:27:53;6.60;;;4.38;;
64842;SDS011;51310;52.198;5.422;2023-07-22T10:30:19;10.98;;;4.93;;
64842;SDS011;51310;52.198;5.422;2023-07-22T10:32:46;10.05;;;4.85;;
64842;SDS011;51310;52.198;5.422;2023-07-22T10:35:22;7.82;;;4.10;;
64842;SDS011;51310;52.198;5.422;2023-07-22T10:43:32;11.48;;;4.15;;
64842;SDS011;51310;52.198;5.422;2023-07-22T10:46:04;11.65;;;4.35;;
64842;SDS011;51310;52.198;5.422;2023-07-22T10:48:38;9.75;;;4.18;;
64842;SDS011;51310;52.198;5.422;2023-07-22T10:56:12;6.97;;;3.73;;
64842;SDS011;51310;52.198;5.422;2023-07-22T11:06:36;6.80;;;3.63;;
64842;SDS011;51310;52.198;5.422;2023-07-22T11:12:02;6.18;;;3.90;;
64842;SDS011;51310;52.198;5.422;2023-07-22T11:14:49;7.47;;;3.55;;
64842;SDS011;51310;52.198;5.422;2023-07-22T11:17:30;9.00;;;4.25;;
64842;SDS011;51310;52.198;5.422;2023-07-22T11:19:58;7.55;;;4.07;;
64842;SDS011;51310;52.198;5.422;2023-07-22T11:22:26;8.13;;;3.50;;
64842;SDS011;51310;52.198;5.422;2023-07-22T11:24:55;5.70;;;3.28;;
64842;SDS011;51310;52.198;5.422;2023-07-22T11:27:23;5.82;;;3.00;;
64842;SDS011;51310;52.198;5.422;2023-07-22T11:29:49;6.00;;;2.88;;
64842;SDS011;51310;52.198;5.422;2023-07-22T11:32:15;6.65;;;3.25;;
64842;SDS011;51310;52.198;5.422;2023-07-22T11:34:46;5.35;;;3.28;;
64842;SDS011;51310;52.198;5.422;2023-07-22T11:37:13;5.18;;;2.95;;
64842;SDS011;51310;52.198;5.422;2023-07-22T11:39:40;4.68;;;3.28;;
64842;SDS011;51310;52.198;5.422;2023-07-22T11:42:07;6.40;;;4.10;;
64842;SDS011;51310;52.198;5.422;2023-07-22T11:44:33;9.30;;;4.68;;
64842;SDS011;51310;52.198;5.422;2023-07-22T11:47:06;11.25;;;5.35;;
64842;SDS011;51310;52.198;5.422;2023-07-22T11:52:15;9.40;;;5.93;;
64842;SDS011;51310;52.198;5.422;2023-07-22T11:54:44;8.60;;;4.90;;
64842;SDS011;51310;52.198;5.422;2023-07-22T11:59:45;6.32;;;4.53;;
64842;SDS011;51310;52.198;5.422;2023-07-22T12:04:59;8.60;;;4.20;;
64842;SDS011;51310;52.198;5.422;2023-07-22T12:07:33;6.05;;;4.22;;
64842;SDS011;51310;52.198;5.422;2023-07-22T12:10:03;10.18;;;4.57;;
64842;SDS011;51310;52.198;5.422;2023-07-22T12:12:35;10.57;;;4.35;;
64842;SDS011;51310;52.198;5.422;2023-07-22T12:15:09;10.93;;;5.28;;
64842;SDS011;51310;52.198;5.422;2023-07-22T12:17:48;9.32;;;6.22;;
64842;SDS011;51310;52.198;5.422;2023-07-22T12:20:29;11.48;;;6.15;;
64842;SDS011;51310;52.198;5.422;2023-07-22T12:23:00;15.93;;;5.85;;
64842;SDS011;51310;52.198;5.422;2023-07-22T12:25:26;12.07;;;6.68;;
64842;SDS011;51310;52.198;5.422;2023-07-22T12:27:52;15.88;;;6.25;;
64842;SDS011;51310;52.198;5.422;2023-07-22T12:30:18;8.30;;;5.07;;
64842;SDS011;51310;52.198;5.422;2023-07-22T12:32:45;12.55;;;5.57;;
64842;SDS011;51310;52.198;5.422;2023-07-22T12:35:12;9.93;;;4.75;;
64842;SDS011;51310;52.198;5.422;2023-07-22T12:37:38;15.27;;;5.47;;
64842;SDS011;51310;52.198;5.422;2023-07-22T12:40:04;11.57;;;4.90;;
64842;SDS011;51310;52.198;5.422;2023-07-22T12:42:33;16.42;;;5.30;;
64842;SDS011;51310;52.198;5.422;2023-07-22T12:45:02;13.13;;;5.90;;
64842;SDS011;51310;52.198;5.422;2023-07-22T12:47:30;9.15;;;5.75;;
64842;SDS011;51310;52.198;5.422;2023-07-22T12:49:57;12.13;;;4.68;;
64842;SDS011;51310;52.198;5.422;2023-07-22T12:52:22;10.05;;;4.93;;
64842;SDS011;51310;52.198;5.422;2023-07-22T12:54:48;11.18;;;5.03;;
64842;SDS011;51310;52.198;5.422;2023-07-22T12:57:14;10.27;;;5.68;;
64842;SDS011;51310;52.198;5.422;2023-07-22T12:59:40;12.20;;;5.15;;
64842;SDS011;51310;52.198;5.422;2023-07-22T13:02:06;8.15;;;5.60;;
64842;SDS011;51310;52.198;5.422;2023-07-22T13:04:32;10.48;;;5.72;;
64842;SDS011;51310;52.198;5.422;2023-07-22T13:06:58;9.18;;;5.68;;
64842;SDS011;51310;52.198;5.422;2023-07-22T13:09:24;13.32;;;5.60;;
64842;SDS011;51310;52.198;5.422;2023-07-22T13:11:50;10.40;;;5.20;;
64842;SDS011;51310;52.198;5.422;2023-07-22T13:14:15;16.95;;;5.70;;
64842;SDS011;51310;52.198;5.422;2023-07-22T13:16:43;8.75;;;6.15;;
64842;SDS011;51310;52.198;5.422;2023-07-22T13:19:09;12.55;;;5.55;;
64842;SDS011;51310;52.198;5.422;2023-07-22T13:21:35;10.80;;;5.18;;
64842;SDS011;51310;52.198;5.422;2023-07-22T13:24:01;8.15;;;5.55;;
64842;SDS011;51310;52.198;5.422;2023-07-22T13:26:26;13.20;;;5.82;;
64842;SDS011;51310;52.198;5.422;2023-07-22T13:28:52;15.73;;;5.93;;
64842;SDS011;51310;52.198;5.422;2023-07-22T13:31:19;11.95;;;5.15;;
64842;SDS011;51310;52.198;5.422;2023-07-22T13:33:45;9.38;;;5.03;;
64842;SDS011;51310;52.198;5.422;2023-07-22T13:36:11;8.82;;;5.97;;
64842;SDS011;51310;52.198;5.422;2023-07-22T13:38:37;13.07;;;5.75;;
64842;SDS011;51310;52.198;5.422;2023-07-22T13:41:03;11.27;;;6.18;;
64842;SDS011;51310;52.198;5.422;2023-07-22T13:43:28;16.05;;;5.50;;
64842;SDS011;51310;52.198;5.422;2023-07-22T13:45:54;7.22;;;4.68;;
64842;SDS011;51310;52.198;5.422;2023-07-22T13:48:21;6.40;;;4.22;;
64842;SDS011;51310;52.198;5.422;2023-07-22T13:50:46;11.07;;;4.07;;
64842;SDS011;51310;52.198;5.422;2023-07-22T13:53:12;9.13;;;3.13;;
64842;SDS011;51310;52.198;5.422;2023-07-22T13:55:38;7.45;;;2.88;;
64842;SDS011;51310;52.198;5.422;2023-07-22T13:58:04;7.47;;;3.17;;
64842;SDS011;51310;52.198;5.422;2023-07-22T14:00:30;7.03;;;2.42;;
64842;SDS011;51310;52.198;5.422;2023-07-22T14:02:56;9.15;;;3.00;;
64842;SDS011;51310;52.198;5.422;2023-07-22T14:05:22;6.10;;;3.15;;
64842;SDS011;51310;52.198;5.422;2023-07-22T14:07:48;5.95;;;2.88;;
64842;SDS011;51310;52.198;5.422;2023-07-22T14:10:14;12.52;;;2.83;;
64842;SDS011;51310;52.198;5.422;2023-07-22T14:12:40;6.00;;;2.55;;
64842;SDS011;51310;52.198;5.422;2023-07-22T14:15:06;8.32;;;2.70;;
64842;SDS011;51310;52.198;5.422;2023-07-22T14:17:33;5.40;;;2.25;;
64842;SDS011;51310;52.198;5.422;2023-07-22T14:19:58;4.25;;;2.08;;
64842;SDS011;51310;52.198;5.422;2023-07-22T14:22:25;3.55;;;2.08;;
64842;SDS011;51310;52.198;5.422;2023-07-22T14:24:50;7.80;;;2.53;;
64842;SDS011;51310;52.198;5.422;2023-07-22T14:27:16;5.43;;;2.20;;
64842;SDS011;51310;52.198;5.422;2023-07-22T14:29:43;5.82;;;2.90;;
64842;SDS011;51310;52.198;5.422;2023-07-22T14:32:09;6.15;;;3.97;;
64842;SDS011;51310;52.198;5.422;2023-07-22T14:34:35;8.77;;;4.38;;
64842;SDS011;51310;52.198;5.422;2023-07-22T14:37:01;9.80;;;4.03;;
64842;SDS011;51310;52.198;5.422;2023-07-22T14:39:29;5.82;;;3.60;;
64842;SDS011;51310;52.198;5.422;2023-07-22T14:41:55;4.70;;;2.88;;
64842;SDS011;51310;52.198;5.422;2023-07-22T14:44:21;9.52;;;3.30;;
64842;SDS011;51310;52.198;5.422;2023-07-22T14:46:47;15.68;;;3.00;;
64842;SDS011;51310;52.198;5.422;2023-07-22T14:49:13;5.07;;;2.85;;
64842;SDS011;51310;52.198;5.422;2023-07-22T14:51:39;6.75;;;3.35;;
64842;SDS011;51310;52.198;5.422;2023-07-22T14:54:05;5.97;;;2.70;;
64842;SDS011;51310;52.198;5.422;2023-07-22T14:56:31;9.95;;;2.50;;
64842;SDS011;51310;52.198;5.422;2023-07-22T14:58:57;14.07;;;3.13;;
64842;SDS011;51310;52.198;5.422;2023-07-22T15:01:23;4.18;;;2.25;;